Time;durP1;ratioP1;P1;durP2;ratioP2;P2;SDS_P1;SDS_P2;PMS_P1;PMS_P2;Temp;Humidity;BMP_temperature;BMP_pressure;BME280_temperature;BME280_humidity;BME280_pressure;Samples;Min_cycle;Max_cycle;Signal;HPM_P1;HPM_P2
2021/05/24 00:01:27;;;;;;;1.88;0.60;;;17.40;58.70;;;;;;5013093;28;20157;-66
2021/05/24 00:03:53;;;;;;;1.13;0.57;;;17.40;58.90;;;;;;5012812;28;20045;-66
2021/05/24 00:06:19;;;;;;;0.40;0.30;;;17.40;58.70;;;;;;5011752;28;20029;-67
2021/05/24 00:08:44;;;;;;;2.45;0.80;;;18.10;59.10;;;;;;5013012;28;20476;-66
2021/05/24 00:11:10;;;;;;;1.95;0.40;;;17.40;58.70;;;;;;5011134;28;20511;-67
2021/05/24 00:13:44;;;;;;;0.85;0.40;;;17.80;58.90;;;;;;5012618;28;20041;-66
2021/05/24 00:16:10;;;;;;;0.70;0.50;;;17.40;58.70;;;;;;5013160;28;20049;-66
2021/05/24 00:18:36;;;;;;;0.57;0.45;;;17.20;58.70;;;;;;5013204;28;20112;-67
2021/05/24 00:21:03;;;;;;;0.70;0.40;;;17.20;58.70;;;;;;5012929;28;20025;-66
2021/05/24 00:23:28;;;;;;;0.85;0.50;;;17.40;59.40;;;;;;5013125;28;20028;-67
2021/05/24 00:25:55;;;;;;;0.70;0.40;;;17.10;58.70;;;;;;5012858;28;20018;-67
2021/05/24 00:28:21;;;;;;;0.88;0.30;;;17.30;58.80;;;;;;5011464;28;20025;-67
2021/05/24 00:30:49;;;;;;;1.80;0.60;;;17.20;58.70;;;;;;5011546;28;20026;-67
2021/05/24 00:33:17;;;;;;;0.90;0.57;;;17.40;58.80;;;;;;5012829;28;20064;-67
2021/05/24 00:35:43;;;;;;;1.05;0.50;;;17.30;58.80;;;;;;5011415;28;20038;-67
2021/05/24 00:38:09;;;;;;;0.80;0.40;;;17.30;58.80;;;;;;5012989;28;20406;-67
2021/05/24 00:40:36;;;;;;;1.85;0.50;;;17.50;58.90;;;;;;5012622;28;20026;-67
2021/05/24 00:43:03;;;;;;;0.52;0.30;;;17.10;58.80;;;;;;5012862;28;20026;-66
2021/05/24 00:45:29;;;;;;;1.05;0.50;;;17.40;58.90;;;;;;5012626;28;20060;-67
2021/05/24 00:47:54;;;;;;;1.55;0.47;;;18.00;59.20;;;;;;5012867;28;20093;-67
2021/05/24 00:50:20;;;;;;;0.80;0.47;;;17.30;58.90;;;;;;5012640;28;20033;-67
2021/05/24 00:52:46;;;;;;;0.40;0.28;;;17.20;58.80;;;;;;5012786;28;20030;-67
2021/05/24 00:55:12;;;;;;;0.98;0.43;;;17.30;58.90;;;;;;5012412;28;20499;-67
2021/05/24 00:57:39;;;;;;;0.40;0.40;;;17.30;58.90;;;;;;5012806;28;20050;-67
2021/05/24 01:00:07;;;;;;;1.08;0.30;;;17.30;58.90;;;;;;5011481;28;20498;-67
2021/05/24 01:02:33;;;;;;;0.50;0.30;;;17.30;58.90;;;;;;5012396;28;20026;-66
2021/05/24 01:04:59;;;;;;;0.57;0.50;;;16.80;58.70;;;;;;5012295;28;20118;-67
2021/05/24 01:07:24;;;;;;;0.40;0.40;;;17.30;58.90;;;;;;5012757;28;20404;-67
2021/05/24 01:09:50;;;;;;;1.10;0.43;;;17.30;58.90;;;;;;5012746;28;20357;-67
2021/05/24 01:12:16;;;;;;;0.45;0.40;;;17.10;58.80;;;;;;5011104;28;20488;-67
2021/05/24 01:14:42;;;;;;;0.43;0.30;;;17.10;58.90;;;;;;5012294;28;20113;-67
2021/05/24 01:17:08;;;;;;;0.75;0.28;;;17.30;59.00;;;;;;5012386;28;20365;-67
2021/05/24 01:19:33;;;;;;;0.47;0.28;;;17.30;59.00;;;;;;5011336;28;20484;-66
2021/05/24 01:21:59;;;;;;;0.73;0.43;;;17.20;59.00;;;;;;5012648;28;20038;-66
2021/05/24 01:24:25;;;;;;;0.85;0.40;;;17.30;59.00;;;;;;5013768;28;20058;-66
2021/05/24 01:26:50;;;;;;;0.82;0.40;;;17.60;59.20;;;;;;5016355;28;20112;-66
2021/05/24 01:29:21;;;;;;;0.35;0.30;;;17.20;58.90;;;;;;5014592;28;20030;-66
2021/05/24 01:31:47;;;;;;;;;;;17.00;58.80;;;;;;5016231;28;20488;-67
2021/05/24 01:34:13;;;;;;;0.90;0.50;;;17.10;58.90;;;;;;5015871;28;19909;-66
2021/05/24 01:36:39;;;;;;;1.05;0.40;;;17.30;59.10;;;;;;5015676;28;20071;-66
2021/05/24 01:39:06;;;;;;;0.55;0.35;;;17.20;59.00;;;;;;5015929;28;20382;-66
2021/05/24 01:41:31;;;;;;;0.68;0.30;;;17.20;59.00;;;;;;4997962;28;20033;-66
2021/05/24 01:43:57;;;;;;;0.60;0.30;;;17.10;59.00;;;;;;5015478;28;20377;-66
2021/05/24 01:46:23;;;;;;;1.08;0.32;;;17.20;59.10;;;;;;5014178;28;20033;-66
2021/05/24 01:48:48;;;;;;;0.28;0.20;;;17.50;59.20;;;;;;5014075;28;20022;-66
2021/05/24 01:51:14;;;;;;;1.17;0.35;;;17.10;59.00;;;;;;5015379;28;20021;-66
2021/05/24 01:53:40;;;;;;;0.55;0.20;;;17.00;59.00;;;;;;5015676;28;20026;-66
2021/05/24 01:56:06;;;;;;;2.33;0.40;;;17.20;59.10;;;;;;5015255;28;20041;-66
2021/05/24 01:58:32;;;;;;;0.50;0.40;;;17.30;59.20;;;;;;5015490;28;20026;-66
2021/05/24 02:01:11;;;;;;;0.85;0.40;;;17.30;59.20;;;;;;5015127;28;20088;-66
2021/05/24 02:03:39;;;;;;;1.88;0.57;;;17.20;59.10;;;;;;5015160;28;20408;-66
2021/05/24 02:06:05;;;;;;;0.43;0.30;;;17.20;59.20;;;;;;5015080;28;20026;-66
2021/05/24 02:08:32;;;;;;;1.60;0.45;;;17.20;59.20;;;;;;5015243;28;20476;-66
2021/05/24 02:10:58;;;;;;;0.60;0.30;;;17.20;59.20;;;;;;5013728;28;20091;-66
2021/05/24 02:13:27;;;;;;;0.30;0.20;;;17.20;59.20;;;;;;5014911;28;20018;-66
2021/05/24 02:15:53;;;;;;;0.60;0.30;;;17.00;59.10;;;;;;5013876;28;20037;-66
2021/05/24 02:18:19;;;;;;;0.30;0.30;;;17.10;59.20;;;;;;5015023;28;20443;-67
2021/05/24 02:20:44;;;;;;;0.32;0.32;;;17.20;59.30;;;;;;5014756;28;20026;-66
2021/05/24 02:23:10;;;;;;;0.82;0.30;;;16.90;59.10;;;;;;5014772;28;20022;-66
2021/05/24 02:25:36;;;;;;;1.83;0.30;;;17.20;59.30;;;;;;5014546;28;20026;-66
2021/05/24 02:28:03;;;;;;;1.20;0.60;;;17.20;59.30;;;;;;5014888;28;20384;-66
2021/05/24 02:30:29;;;;;;;1.17;0.45;;;17.20;59.40;;;;;;5014624;28;20056;-66
2021/05/24 02:32:55;;;;;;;0.38;0.25;;;17.20;59.30;;;;;;5014775;28;20020;-66
2021/05/24 02:35:24;;;;;;;1.85;0.40;;;17.20;58.80;;;;;;5013472;28;20033;-66
2021/05/24 02:37:50;;;;;;;0.82;0.30;;;17.20;84.80;;;;;;5014420;28;20025;-66
2021/05/24 02:40:19;;;;;;;0.73;0.32;;;17.20;59.30;;;;;;5014403;28;20022;-66
2021/05/24 02:42:46;;;;;;;0.70;0.30;;;17.00;59.20;;;;;;5014291;28;20054;-66
2021/05/24 02:45:14;;;;;;;0.60;0.30;;;17.00;59.20;;;;;;5014211;28;20026;-66
2021/05/24 02:47:39;;;;;;;0.93;0.30;;;17.20;59.30;;;;;;5014565;28;20347;-66
2021/05/24 02:50:07;;;;;;;0.40;0.20;;;17.20;59.40;;;;;;5014182;28;20407;-66
2021/05/24 02:52:33;;;;;;;0.50;0.30;;;17.20;59.30;;;;;;5014115;28;20022;-66
2021/05/24 02:54:59;;;;;;;0.47;0.30;;;17.00;59.30;;;;;;5014123;28;20038;-66
2021/05/24 02:57:25;;;;;;;1.20;0.40;;;17.00;59.30;;;;;;5014093;28;20472;-66
2021/05/24 02:59:50;;;;;;;0.40;0.30;;;17.20;59.40;;;;;;5014290;28;20103;-65
2021/05/24 03:02:23;;;;;;;0.40;0.40;;;17.30;59.50;;;;;;5013951;28;20393;-66
2021/05/24 03:04:49;;;;;;;0.80;0.30;;;17.00;59.40;;;;;;5013842;28;20061;-66
2021/05/24 03:07:14;;;;;;;1.10;0.55;;;17.20;59.50;;;;;;5013861;28;20385;-66
2021/05/24 03:09:40;;;;;;;0.40;0.20;;;17.20;59.50;;;;;;5013887;28;20026;-66
2021/05/24 03:12:06;;;;;;;0.35;0.30;;;17.10;59.50;;;;;;5014183;28;20029;-66
2021/05/24 03:14:32;;;;;;;0.30;0.30;;;17.50;84.90;;;;;;5013676;28;20022;-66
2021/05/24 03:16:57;;;;;;;0.60;0.30;;;17.50;59.70;;;;;;5013743;28;20026;-66
2021/05/24 03:19:23;;;;;;;1.00;0.40;;;17.10;59.50;;;;;;5013709;28;20464;-66
2021/05/24 03:21:48;;;;;;;0.40;0.40;;;17.60;59.80;;;;;;5013673;28;20101;-66
2021/05/24 03:24:14;;;;;;;0.55;0.35;;;17.20;59.60;;;;;;5013608;28;20025;-66
2021/05/24 03:26:40;;;;;;;0.40;0.32;;;17.10;59.50;;;;;;5012637;28;20018;-66
2021/05/24 03:29:05;;;;;;;0.70;0.30;;;17.10;59.50;;;;;;5013589;28;20095;-66
2021/05/24 03:31:31;;;;;;;0.65;0.30;;;17.20;59.60;;;;;;5013493;28;20037;-66
2021/05/24 03:33:57;;;;;;;1.10;0.45;;;;;;;;;;5013691;28;20022;-66
2021/05/24 03:36:23;;;;;;;0.65;0.65;;;17.10;59.00;;;;;;5013350;28;20042;-66
2021/05/24 03:38:49;;;;;;;0.93;0.43;;;17.10;59.60;;;;;;5013359;28;20014;-66
2021/05/24 03:41:15;;;;;;;1.15;0.40;;;16.80;59.40;;;;;;5012072;28;20034;-66
2021/05/24 03:43:45;;;;;;;0.73;0.30;;;17.10;59.80;;;;;;5012069;28;20072;-66
2021/05/24 03:46:10;;;;;;;;;;;17.60;59.90;;;;;;5013548;28;20101;-66
2021/05/24 03:48:37;;;;;;;0.50;0.38;;;16.80;59.40;;;;;;5013499;28;19936;-66
2021/05/24 03:51:07;;;;;;;0.80;0.30;;;17.10;59.60;;;;;;5013151;28;20079;-66
2021/05/24 03:53:33;;;;;;;1.98;0.30;;;17.10;59.60;;;;;;5013213;28;20123;-66
2021/05/24 03:55:59;;;;;;;0.80;0.30;;;17.10;59.70;;;;;;5012986;28;20111;-66
2021/05/24 03:58:24;;;;;;;0.22;0.20;;;16.80;59.50;;;;;;5013144;28;20053;-66
2021/05/24 04:00:50;;;;;;;0.47;0.30;;;17.00;59.60;;;;;;5013058;28;20029;-66
2021/05/24 04:03:16;;;;;;;0.50;0.40;;;;;;;;;;5012597;28;20033;-66
2021/05/24 04:05:43;;;;;;;0.90;0.40;;;17.10;59.10;;;;;;5013078;28;20384;-66
2021/05/24 04:08:09;;;;;;;0.30;0.20;;;16.90;59.60;;;;;;5013270;28;20049;-66
2021/05/24 04:10:38;;;;;;;0.30;0.30;;;17.10;59.70;;;;;;5012965;28;20461;-66
2021/05/24 04:13:04;;;;;;;0.40;0.40;;;17.00;59.70;;;;;;5013239;28;20022;-66
2021/05/24 04:15:31;;;;;;;0.43;0.20;;;17.00;59.60;;;;;;5012809;28;20037;-66
2021/05/24 04:18:00;;;;;;;0.57;0.35;;;17.10;59.70;;;;;;5012895;28;20441;-66
2021/05/24 04:20:26;;;;;;;0.38;0.30;;;16.80;59.50;;;;;;5011483;28;20234;-66
2021/05/24 04:22:51;;;;;;;0.20;0.20;;;17.00;60.30;;;;;;5012836;28;20018;-66
2021/05/24 04:25:18;;;;;;;0.63;0.20;;;17.20;59.80;;;;;;5011564;28;20024;-65
2021/05/24 04:27:44;;;;;;;0.90;0.22;;;16.80;59.70;;;;;;5012797;28;20026;-66
2021/05/24 04:30:12;;;;;;;0.77;0.28;;;17.20;60.40;;;;;;5012722;28;20026;-66
2021/05/24 04:32:38;;;;;;;0.20;0.20;;;17.00;59.70;;;;;;5012718;28;20042;-66
2021/05/24 04:35:05;;;;;;;1.67;0.32;;;17.10;59.70;;;;;;5011415;28;20065;-66
2021/05/24 04:37:31;;;;;;;0.60;0.32;;;17.10;59.80;;;;;;5012613;28;20022;-66
2021/05/24 04:39:56;;;;;;;0.35;0.30;;;17.20;59.80;;;;;;5012728;28;20365;-66
2021/05/24 04:42:22;;;;;;;0.20;0.20;;;17.00;59.70;;;;;;5012683;28;20021;-66
2021/05/24 04:44:48;;;;;;;1.55;0.40;;;17.10;59.70;;;;;;5012943;28;20125;-66
2021/05/24 04:47:14;;;;;;;0.40;0.30;;;16.90;59.70;;;;;;5012902;28;20022;-66
2021/05/24 04:49:40;;;;;;;0.20;0.20;;;17.00;59.70;;;;;;5012637;28;20484;-66
2021/05/24 04:52:05;;;;;;;0.38;0.17;;;17.00;59.70;;;;;;5012744;28;20030;-66
2021/05/24 04:54:31;;;;;;;0.68;0.28;;;17.00;59.80;;;;;;5012771;28;20026;-66
2021/05/24 04:56:57;;;;;;;0.90;0.40;;;17.20;59.90;;;;;;5011363;28;20037;-66
2021/05/24 04:59:22;;;;;;;0.30;0.20;;;17.00;59.80;;;;;;5015455;28;20069;-66
2021/05/24 05:01:48;;;;;;;1.42;0.30;;;17.20;84.70;;;;;;5014912;28;20029;-66
2021/05/24 05:04:18;;;;;;;0.30;0.20;;;17.00;59.80;;;;;;5016036;28;20044;-66
2021/05/24 05:06:43;;;;;;;0.75;0.30;;;17.00;59.70;;;;;;5016213;28;20022;-66
2021/05/24 05:09:09;;;;;;;0.40;0.20;;;16.80;59.70;;;;;;5016181;28;20032;-66
2021/05/24 05:11:36;;;;;;;1.35;0.30;;;17.20;59.90;;;;;;5016324;28;20101;-66
2021/05/24 05:14:02;;;;;;;0.55;0.22;;;17.00;59.30;;;;;;5014843;28;20037;-66
2021/05/24 05:16:27;;;;;;;1.73;0.43;;;17.00;59.80;;;;;;5016329;28;20046;-66
2021/05/24 05:18:53;;;;;;;2.15;0.30;;;17.00;59.80;;;;;;5016411;28;20010;-66
2021/05/24 05:21:19;;;;;;;0.52;0.30;;;17.00;59.80;;;;;;5016295;28;20436;-66
2021/05/24 05:23:45;;;;;;;0.30;0.30;;;16.80;59.70;;;;;;5015997;28;20491;-66
2021/05/24 05:26:10;;;;;;;0.20;0.10;;;14.10;58.30;;;;;;5015913;28;20022;-66
2021/05/24 05:28:36;;;;;;;2.30;0.30;;;16.90;59.80;;;;;;5015861;28;20033;-66
2021/05/24 05:31:02;;;;;;;0.45;0.30;;;17.00;59.90;;;;;;5014621;28;20029;-66
2021/05/24 05:33:28;;;;;;;1.23;0.20;;;17.80;60.30;;;;;;5014535;28;20026;-66
2021/05/24 05:35:56;;;;;;;0.22;0.20;;;17.00;59.90;;;;;;5015870;28;20049;-66
2021/05/24 05:38:22;;;;;;;0.40;0.30;;;16.90;59.80;;;;;;5015896;28;20033;-66
2021/05/24 05:40:51;;;;;;;0.77;0.35;;;17.00;59.90;;;;;;5014431;28;20022;-66
2021/05/24 05:43:17;;;;;;;0.35;0.30;;;17.00;59.90;;;;;;5015865;28;20427;-66
2021/05/24 05:45:42;;;;;;;0.30;0.30;;;17.00;59.90;;;;;;5015850;28;20037;-66
2021/05/24 05:48:09;;;;;;;0.40;0.30;;;17.00;59.90;;;;;;5015561;28;20029;-66
2021/05/24 05:50:35;;;;;;;0.52;0.20;;;17.00;59.90;;;;;;5015732;28;20033;-66
2021/05/24 05:53:00;;;;;;;0.32;0.20;;;16.70;59.80;;;;;;5014087;28;20014;-66
2021/05/24 05:55:26;;;;;;;0.50;0.30;;;17.50;60.20;;;;;;5013967;28;20042;-66
2021/05/24 05:57:52;;;;;;;0.63;0.35;;;16.90;59.90;;;;;;5015298;28;20024;-66
2021/05/24 06:00:18;;;;;;;0.20;0.20;;;16.80;59.90;;;;;;5014010;28;20030;-66
2021/05/24 06:02:43;;;;;;;0.75;0.40;;;17.00;60.00;;;;;;5015153;28;20105;-66
2021/05/24 06:05:11;;;;;;;1.73;0.30;;;17.00;60.00;;;;;;5014999;28;20037;-66
2021/05/24 06:07:36;;;;;;;0.73;0.40;;;17.00;60.00;;;;;;5015105;28;20068;-66
2021/05/24 06:10:03;;;;;;;0.52;0.30;;;16.90;60.60;;;;;;5015376;28;20045;-66
2021/05/24 06:12:29;;;;;;;1.00;0.35;;;17.00;60.00;;;;;;5015040;28;20026;-66
2021/05/24 06:14:57;;;;;;;0.57;0.25;;;17.00;60.00;;;;;;5013717;28;20060;-66
2021/05/24 06:17:22;;;;;;;1.05;0.30;;;17.00;60.00;;;;;;5015273;28;20105;-66
2021/05/24 06:19:48;;;;;;;0.75;0.30;;;17.00;60.00;;;;;;5013673;28;20060;-66
2021/05/24 06:22:14;;;;;;;0.50;0.20;;;17.00;60.00;;;;;;5015201;28;20045;-66
2021/05/24 06:24:39;;;;;;;0.32;0.20;;;16.90;60.00;;;;;;5014928;28;20018;-66
2021/05/24 06:27:05;;;;;;;1.05;0.40;;;16.90;60.00;;;;;;5014887;28;20036;-66
2021/05/24 06:29:32;;;;;;;2.10;0.50;;;16.40;59.70;;;;;;5013584;28;20030;-66
2021/05/24 06:31:58;;;;;;;0.60;0.30;;;17.00;60.10;;;;;;5014738;28;20018;-66
2021/05/24 06:34:23;;;;;;;0.85;0.30;;;17.00;60.10;;;;;;5013372;28;20060;-66
2021/05/24 06:36:49;;;;;;;0.30;0.28;;;17.10;60.20;;;;;;5013513;28;20026;-66
2021/05/24 06:39:16;;;;;;;0.40;0.40;;;17.10;60.20;;;;;;5014487;28;20061;-66
2021/05/24 06:41:42;;;;;;;0.55;0.20;;;16.80;60.00;;;;;;5014639;28;20057;-66
2021/05/24 06:44:08;;;;;;;0.20;0.20;;;17.00;60.10;;;;;;5014505;28;20076;-66
2021/05/24 06:46:34;;;;;;;0.40;0.20;;;16.90;60.30;;;;;;5014333;28;20049;-66
2021/05/24 06:48:59;;;;;;;0.50;0.20;;;17.00;60.10;;;;;;5014553;28;20106;-66
2021/05/24 06:51:25;;;;;;;0.25;0.20;;;16.70;60.00;;;;;;5014438;28;20500;-66
2021/05/24 06:53:52;;;;;;;0.30;0.30;;;16.80;60.00;;;;;;5014545;28;20029;-66
2021/05/24 06:56:18;;;;;;;0.50;0.20;;;16.70;60.00;;;;;;5014106;28;20484;-66
2021/05/24 06:58:44;;;;;;;0.20;0.20;;;17.00;60.20;;;;;;5014230;28;20535;-65
2021/05/24 07:01:09;;;;;;;0.75;0.20;;;16.70;60.10;;;;;;5012885;28;20030;-66
2021/05/24 07:03:35;;;;;;;0.28;0.25;;;16.80;60.10;;;;;;5013806;28;20050;-66
2021/05/24 07:06:00;;;;;;;0.57;0.22;;;17.30;60.60;;;;;;5014228;28;20457;-65
2021/05/24 07:08:26;;;;;;;0.70;0.20;;;16.70;60.30;;;;;;5014236;28;20022;-66
2021/05/24 07:10:52;;;;;;;0.93;0.40;;;16.90;60.30;;;;;;5013917;28;20431;-65
2021/05/24 07:13:18;;;;;;;1.00;0.45;;;17.00;60.40;;;;;;5013865;28;20025;-66
2021/05/24 07:15:44;;;;;;;0.30;0.20;;;16.90;60.90;;;;;;5012491;28;20133;-66
2021/05/24 07:18:10;;;;;;;1.50;0.30;;;17.00;60.30;;;;;;5014016;28;20358;-66
2021/05/24 07:20:36;;;;;;;1.00;0.40;;;17.00;60.30;;;;;;5012026;28;20022;-66
2021/05/24 07:23:02;;;;;;;0.52;0.30;;;17.00;60.30;;;;;;5013734;28;20481;-66
2021/05/24 07:25:28;;;;;;;0.68;0.32;;;16.90;60.20;;;;;;5013710;28;20034;-66
2021/05/24 07:27:53;;;;;;;0.60;0.28;;;17.00;60.40;;;;;;5013632;28;20076;-66
2021/05/24 07:30:19;;;;;;;0.30;0.22;;;16.90;60.30;;;;;;5013780;28;20498;-65
2021/05/24 07:32:45;;;;;;;0.50;0.40;;;17.00;60.20;;;;;;5013826;28;20495;-66
2021/05/24 07:35:11;;;;;;;0.30;0.20;;;17.00;60.30;;;;;;5013341;28;20465;-63
2021/05/24 07:37:37;;;;;;;0.95;0.30;;;16.80;60.10;;;;;;5013728;28;20053;-64
2021/05/24 07:40:08;;;;;;;1.65;0.45;;;17.00;60.20;;;;;;5013470;28;20054;-64
2021/05/24 07:42:34;;;;;;;1.00;0.45;;;17.10;60.40;;;;;;5013693;28;20100;-64
2021/05/24 07:45:00;;;;;;;1.02;0.80;;;16.70;60.40;;;;;;5013359;28;20060;-64
2021/05/24 07:47:25;;;;;;;2.25;0.43;;;17.10;60.90;;;;;;5013378;28;20057;-63
2021/05/24 07:49:51;;;;;;;0.38;0.30;;;17.10;60.80;;;;;;5013595;28;20014;-65
2021/05/24 07:52:16;;;;;;;0.68;0.30;;;17.00;60.60;;;;;;5013269;28;20097;-65
2021/05/24 07:54:42;;;;;;;0.30;0.30;;;16.80;60.50;;;;;;5013207;28;20026;-65
2021/05/24 07:57:08;;;;;;;1.83;0.20;;;16.90;60.50;;;;;;5013403;28;20040;-64
2021/05/24 07:59:34;;;;;;;0.45;0.30;;;17.00;60.70;;;;;;5013408;28;20014;-66
2021/05/24 08:02:02;;;;;;;3.17;0.40;;;17.00;60.90;;;;;;5013134;28;20045;-65
2021/05/24 08:04:28;;;;;;;4.88;0.50;;;17.00;61.60;;;;;;5012922;28;20390;-66
2021/05/24 08:06:54;;;;;;;1.75;0.40;;;17.10;61.70;;;;;;5013066;28;20033;-65
2021/05/24 08:09:19;;;;;;;2.45;0.40;;;17.20;62.50;;;;;;5013030;28;20025;-66
2021/05/24 08:11:45;;;;;;;0.28;0.20;;;17.20;62.10;;;;;;5013289;28;20025;-66
2021/05/24 08:14:14;;;;;;;0.63;0.43;;;17.20;62.20;;;;;;5012946;28;20055;-66
2021/05/24 08:16:42;;;;;;;0.65;0.55;;;17.00;62.10;;;;;;5012884;28;20105;-65
2021/05/24 08:19:08;;;;;;;0.50;0.20;;;17.30;62.20;;;;;;5012963;28;20034;-65
2021/05/24 08:21:33;;;;;;;1.90;0.70;;;17.30;62.20;;;;;;5011759;28;20037;-65
2021/05/24 08:23:59;;;;;;;2.05;0.57;;;17.30;62.20;;;;;;5012914;28;20033;-65
2021/05/24 08:26:25;;;;;;;1.00;0.40;;;17.30;62.20;;;;;;5011667;28;20109;-64
2021/05/24 08:28:50;;;;;;;2.80;0.65;;;17.30;62.20;;;;;;5011715;28;20492;-65
2021/05/24 08:31:16;;;;;;;2.88;0.30;;;17.30;62.20;;;;;;5012794;28;20045;-66
2021/05/24 08:33:42;;;;;;;3.15;0.45;;;17.20;62.30;;;;;;5013880;28;20468;-65
2021/05/24 08:36:08;;;;;;;0.95;0.40;;;17.20;62.20;;;;;;5016709;28;20038;-65
2021/05/24 08:38:33;;;;;;;5.88;0.60;;;17.20;61.80;;;;;;5016823;28;20026;-65
2021/05/24 08:41:06;;;;;;;1.17;0.30;;;17.30;62.00;;;;;;5016992;28;20120;-65
2021/05/24 08:43:32;;;;;;;3.17;0.32;;;17.20;62.00;;;;;;5015366;28;20362;-65
2021/05/24 08:46:00;;;;;;;1.30;0.30;;;17.40;62.00;;;;;;5016636;28;20365;-66
2021/05/24 08:48:26;;;;;;;2.15;0.57;;;;;;;;;;5016546;28;20638;-66
2021/05/24 08:50:52;;;;;;;1.45;0.50;;;17.40;61.30;;;;;;5016503;28;20034;-66
2021/05/24 08:53:17;;;;;;;6.47;0.68;;;17.50;62.00;;;;;;5016481;28;20030;-66
2021/05/24 08:55:43;;;;;;;1.40;0.65;;;17.50;62.00;;;;;;5016440;28;20042;-66
2021/05/24 08:58:09;;;;;;;2.72;0.70;;;17.30;61.80;;;;;;5016429;28;20465;-66
2021/05/24 09:00:35;;;;;;;1.77;0.50;;;17.40;61.80;;;;;;5016717;28;20026;-66
2021/05/24 09:03:01;;;;;;;2.05;0.73;;;17.20;61.70;;;;;;5016049;28;20018;-66
2021/05/24 09:05:29;;;;;;;1.75;0.50;;;17.50;62.00;;;;;;5015393;28;20033;-66
2021/05/24 09:08:00;;;;;;;2.78;0.45;;;17.40;61.80;;;;;;5015246;28;20022;-67
2021/05/24 09:10:28;;;;;;;1.55;0.30;;;17.30;61.80;;;;;;5014919;28;20388;-67
2021/05/24 09:12:55;;;;;;;1.20;0.30;;;17.40;61.90;;;;;;5015047;28;20029;-66
2021/05/24 09:15:22;;;;;;;2.10;0.60;;;17.30;61.90;;;;;;5014802;28;20034;-66
2021/05/24 09:17:58;;;;;;;1.90;0.40;;;17.20;61.90;;;;;;5014671;28;20540;-66
2021/05/24 09:20:23;;;;;;;1.42;0.38;;;17.40;62.20;;;;;;5015014;28;20391;-67
2021/05/24 09:23:16;;;;;;;1.73;0.40;;;17.30;62.00;;;;;;5014864;28;20098;-67
2021/05/24 09:26:07;;;;;;;3.33;0.65;;;17.50;62.00;;;;;;5014748;28;20053;-67
2021/05/24 09:28:46;;;;;;;1.63;0.57;;;17.50;61.90;;;;;;5014939;28;20026;-67
2021/05/24 09:31:13;;;;;;;2.28;0.63;;;17.80;61.80;;;;;;5013355;28;20397;-67
2021/05/24 09:33:42;;;;;;;3.92;0.40;;;17.60;61.70;;;;;;5014542;28;20029;-67
2021/05/24 09:36:08;;;;;;;5.88;0.50;;;17.60;61.40;;;;;;5014259;28;20026;-66
2021/05/24 09:38:36;;;;;;;2.78;0.43;;;17.70;61.30;;;;;;5014470;28;20053;-66
2021/05/24 09:41:03;;;;;;;3.13;0.32;;;17.80;61.20;;;;;;5014698;28;20036;-66
2021/05/24 09:43:40;;;;;;;2.33;0.20;;;17.80;61.00;;;;;;5014226;28;20018;-66
2021/05/24 09:46:28;;;;;;;0.65;0.40;;;18.40;61.00;;;;;;5014567;28;20284;-67
2021/05/24 09:48:56;;;;;;;0.82;0.30;;;17.90;60.50;;;;;;5012997;28;20022;-67
2021/05/24 09:51:26;;;;;;;0.98;0.43;;;17.90;60.50;;;;;;5014220;28;20041;-66
2021/05/24 09:54:11;;;;;;;3.15;0.60;;;18.00;60.50;;;;;;5014236;28;20026;-66
2021/05/24 09:56:47;;;;;;;1.63;0.40;;;18.10;60.30;;;;;;5014031;28;20484;-66
2021/05/24 09:59:18;;;;;;;4.55;0.30;;;18.10;60.30;;;;;;5014373;28;20473;-66
2021/05/24 10:01:48;;;;;;;1.92;0.52;;;18.10;60.40;;;;;;5013975;28;20500;-67
2021/05/24 10:04:21;;;;;;;1.30;0.40;;;18.10;60.60;;;;;;4988665;28;744196;-67
2021/05/24 10:06:47;;;;;;;1.65;0.32;;;18.10;60.50;;;;;;5015300;28;20018;-67
2021/05/24 10:09:15;;;;;;;1.42;0.32;;;18.30;60.80;;;;;;5013664;28;20026;-66
2021/05/24 10:11:43;;;;;;;1.67;0.30;;;17.80;60.40;;;;;;5015164;28;20388;-67
2021/05/24 10:14:10;;;;;;;1.40;0.40;;;18.40;60.70;;;;;;5013674;28;20022;-67
2021/05/24 10:16:42;;;;;;;0.40;0.40;;;17.70;60.40;;;;;;5014813;28;20548;-67
2021/05/24 10:19:11;;;;;;;1.27;0.55;;;18.10;60.80;;;;;;5014811;28;20593;-67
2021/05/24 10:21:36;;;;;;;1.60;0.35;;;17.80;60.90;;;;;;5014812;28;20025;-66
2021/05/24 10:24:02;;;;;;;1.45;0.30;;;17.60;60.70;;;;;;5013386;28;20026;-66
2021/05/24 10:26:29;;;;;;;0.52;0.20;;;17.80;60.90;;;;;;5014696;28;20025;-66
2021/05/24 10:28:56;;;;;;;0.30;0.30;;;17.60;60.90;;;;;;5014614;28;20025;-67
2021/05/24 10:31:25;;;;;;;1.20;0.60;;;17.80;61.10;;;;;;5014851;28;20045;-66
2021/05/24 10:33:51;;;;;;;2.90;0.50;;;17.60;61.00;;;;;;5013056;28;20037;-66
2021/05/24 10:36:38;;;;;;;0.30;0.30;;;17.60;61.00;;;;;;5014359;28;20041;-66
2021/05/24 10:39:25;;;;;;;2.15;0.30;;;17.70;61.10;;;;;;5014310;28;20030;-66
2021/05/24 10:42:00;;;;;;;4.00;0.40;;;17.70;61.00;;;;;;5014400;28;20072;-67
2021/05/24 10:44:47;;;;;;;1.15;0.52;;;17.70;61.00;;;;;;5013020;28;20025;-66
2021/05/24 10:47:20;;;;;;;1.13;0.30;;;17.70;61.00;;;;;;5014293;28;20377;-66
2021/05/24 10:50:05;;;;;;;0.40;0.28;;;17.70;60.90;;;;;;5012975;28;20034;-66
2021/05/24 10:52:41;;;;;;;1.05;0.30;;;17.70;60.90;;;;;;5014162;28;20045;-66
2021/05/24 10:55:25;;;;;;;1.50;0.30;;;17.40;60.80;;;;;;5013610;28;20068;-66
2021/05/24 10:58:05;;;;;;;1.85;0.20;;;17.40;61.00;;;;;;5013944;28;20034;-66
2021/05/24 11:00:55;;;;;;;2.05;0.40;;;17.60;61.20;;;;;;5014297;28;20026;-66
2021/05/24 11:03:22;;;;;;;2.10;0.40;;;17.60;61.00;;;;;;5013609;28;20046;-65
2021/05/24 11:06:08;;;;;;;0.55;0.30;;;17.60;61.00;;;;;;5013881;28;20440;-65
2021/05/24 11:08:39;;;;;;;0.60;0.30;;;17.50;60.80;;;;;;5012631;28;20022;-65
2021/05/24 11:11:24;;;;;;;3.10;0.60;;;17.50;60.60;;;;;;5013811;28;20022;-66
2021/05/24 11:14:04;;;;;;;1.15;0.40;;;17.40;60.60;;;;;;5013730;28;20037;-66
2021/05/24 11:16:32;;;;;;;;;;;17.70;60.70;;;;;;5012833;28;20034;-66
2021/05/24 11:19:14;;;;;;;1.67;0.35;;;17.60;60.70;;;;;;5013727;28;20295;-66
2021/05/24 11:21:46;;;;;;;2.30;0.30;;;17.70;60.70;;;;;;5013898;28;20357;-66
2021/05/24 11:27:09;;;;;;;3.72;0.30;;;17.60;60.70;;;;;;5013806;28;20037;-66
2021/05/24 11:29:35;;;;;;;1.48;0.28;;;17.60;60.60;;;;;;5013740;28;20038;-66
2021/05/24 11:32:27;;;;;;;1.85;0.40;;;17.50;60.60;;;;;;5012126;28;20022;-66
2021/05/24 11:34:55;;;;;;;1.95;0.40;;;17.50;60.60;;;;;;5012103;28;20030;-66
2021/05/24 11:37:41;;;;;;;2.00;0.30;;;17.60;60.80;;;;;;5013332;28;20025;-66
2021/05/24 11:40:14;;;;;;;0.68;0.43;;;17.70;60.80;;;;;;5013588;28;20022;-66
2021/05/24 11:42:40;;;;;;;0.75;0.32;;;17.60;60.80;;;;;;5013545;28;20079;-66
2021/05/24 11:45:15;;;;;;;0.50;0.40;;;17.60;60.80;;;;;;5012357;28;20034;-66
2021/05/24 11:47:41;;;;;;;0.75;0.43;;;17.60;60.90;;;;;;5013204;28;20058;-66
2021/05/24 11:50:09;;;;;;;0.65;0.38;;;17.60;60.80;;;;;;5012005;28;20066;-66
2021/05/24 11:52:37;;;;;;;0.32;0.32;;;17.60;60.70;;;;;;5011838;28;20029;-66
2021/05/24 11:55:11;;;;;;;0.60;0.30;;;17.60;60.70;;;;;;5012973;28;20465;-66
2021/05/24 11:57:38;;;;;;;2.10;0.43;;;17.60;60.60;;;;;;5013660;28;20125;-66
2021/05/24 12:00:11;;;;;;;0.63;0.40;;;17.60;60.80;;;;;;5013037;28;20017;-66
2021/05/24 12:02:38;;;;;;;0.68;0.35;;;17.60;60.80;;;;;;5012862;28;20033;-66
2021/05/24 12:05:04;;;;;;;1.83;0.40;;;17.60;60.80;;;;;;5012771;28;20181;-66
2021/05/24 12:07:30;;;;;;;0.50;0.30;;;17.60;60.70;;;;;;5012910;28;20041;-66
2021/05/24 12:10:00;;;;;;;2.67;0.40;;;17.60;60.70;;;;;;5012871;28;20455;-66
2021/05/24 12:12:38;;;;;;;3.45;0.25;;;17.60;60.90;;;;;;5012894;28;20492;-66
2021/05/24 12:15:07;;;;;;;7.18;0.57;;;17.60;60.60;;;;;;5012840;28;20030;-66
2021/05/24 12:17:35;;;;;;;0.98;0.60;;;17.60;61.70;;;;;;5013104;28;20026;-66
2021/05/24 12:20:06;;;;;;;1.20;0.52;;;17.60;61.60;;;;;;5013066;28;20049;-66
2021/05/24 12:22:38;;;;;;;1.05;0.30;;;17.60;61.10;;;;;;5012818;28;20117;-66
2021/05/24 12:25:05;;;;;;;1.00;0.22;;;17.90;61.30;;;;;;5012748;28;20025;-66
2021/05/24 12:27:30;;;;;;;1.20;0.35;;;17.60;61.00;;;;;;5012569;28;20021;-66
2021/05/24 12:30:35;;;;;;;1.63;0.30;;;18.00;61.20;;;;;;5012909;28;20037;-66
2021/05/24 12:33:01;;;;;;;1.65;0.30;;;17.70;61.00;;;;;;5013030;28;20026;-66
2021/05/24 12:35:31;;;;;;;1.30;0.47;;;17.40;60.90;;;;;;5012548;28;20112;-66
2021/05/24 12:38:10;;;;;;;1.17;0.30;;;17.60;61.00;;;;;;5012942;28;20030;-66
2021/05/24 12:40:37;;;;;;;0.63;0.35;;;17.70;85.90;;;;;;5012973;28;20101;-66
2021/05/24 12:43:04;;;;;;;2.10;0.50;;;17.60;61.10;;;;;;5012718;28;20113;-66
2021/05/24 12:45:30;;;;;;;1.40;0.65;;;17.70;61.10;;;;;;5011243;28;20030;-66
2021/05/24 12:48:11;;;;;;;2.25;0.52;;;17.60;61.10;;;;;;5011342;28;20493;-65
2021/05/24 12:50:37;;;;;;;1.20;0.40;;;17.80;85.70;;;;;;5011265;28;20125;-66
2021/05/24 12:53:14;;;;;;;5.10;0.40;;;17.70;61.00;;;;;;5011579;28;20105;-66
2021/05/24 12:55:41;;;;;;;5.90;0.35;;;17.80;60.90;;;;;;5012473;28;20481;-66